Swan Creek, Illinois
Current Conditions -  °F | °C
As of 11:15 AM on Sunday 23 Nov 2014 (Local Time) from KMQB Reporting Station
Light Rain Light Rain  
Wind Chill: 52°   Ceiling: 1300
Heat Index: 52°   Visibility: 7mi
Dew Point: 51°   Wind: 10mph
Humidity: 97%   Direction: 170°S
Pressure: 29.57"   Gusts: NA
Location:  40.7092°N, 90.6155°W
Report Text: KMQB 231715Z AUTO 17009KT 7SM -RA BKN013 BKN035 OVC050 11/11 A2957 RMK AO2 T01100105
Loading
Personal Weather Stations






























Interactive Weather Map New forecast layout! Learn more

10-Day Weather Forecast

Advertisements
Track Severe Weather on mobile